Overland, Kansas
Current Conditions -  °F | °C
As of 5:54 AM on Thursday 29 Jan 2015 (Local Time) from KMKC Reporting Station
Overcast Overcast  
Wind Chill: 32°   Ceiling: 2100
Heat Index: 41°   Visibility: 10mi
Dew Point: 31°   Wind: 17mph
Humidity: 67%   Direction: 330°NNW
Pressure: 30.14"   Gusts: 28mph
Location:  39.0213°N, 94.7068°W
Report Text: KMKC 291154Z 33015G24KT 10SM OVC021 05/M01 A3014 RMK AO2 PK WND 32029/1130 RAE50 SLP205 P0000 60000 T00501006 10128 20050 51049
Loading
Personal Weather Stations






























Interactive Weather Map New forecast layout! Learn more

10-Day Weather Forecast

Advertisements
Track Severe Weather on mobile